createdAt,value
2019-04-10T00:00:02.934Z,20.26
2019-04-10T00:01:04.354Z,20.21
2019-04-10T00:02:02.853Z,20.28
2019-04-10T00:03:02.806Z,20.28
2019-04-10T00:04:02.958Z,20.22
2019-04-10T00:05:03.371Z,20.22
2019-04-10T00:06:02.687Z,20.13
2019-04-10T00:07:12.681Z,20.14
2019-04-10T00:08:02.563Z,20.16
2019-04-10T00:09:02.987Z,20.13
2019-04-10T00:10:03.430Z,20.11
2019-04-10T00:11:02.732Z,20.14
2019-04-10T00:12:02.374Z,20.10
2019-04-10T00:13:02.472Z,20.13
2019-04-10T00:14:02.940Z,20.14
2019-04-10T00:15:03.076Z,20.06
2019-04-10T00:16:02.199Z,20.04
2019-04-10T00:17:02.722Z,20.10
2019-04-10T00:18:02.107Z,20.11
2019-04-10T00:19:02.386Z,20.04
2019-04-10T00:20:02.415Z,20.02
2019-04-10T00:21:01.952Z,20.07
2019-04-10T00:22:02.816Z,20.03
2019-04-10T00:23:02.510Z,19.94
2019-04-10T00:24:01.982Z,20.07
2019-04-10T00:25:02.341Z,20.11
2019-04-10T00:26:01.718Z,20.16
2019-04-10T00:27:02.091Z,20.04
2019-04-10T00:28:01.638Z,19.96
2019-04-10T00:29:01.591Z,20.06
2019-04-10T00:30:01.534Z,19.99
2019-04-10T00:31:01.913Z,20.04
2019-04-10T00:32:02.254Z,20.07
2019-04-10T00:33:01.406Z,19.96
2019-04-10T00:34:01.348Z,19.92
2019-04-10T00:35:02.523Z,19.88
2019-04-10T00:36:01.637Z,19.82
2019-04-10T00:37:01.775Z,19.84
2019-04-10T00:38:01.702Z,19.82
2019-04-10T00:39:02.061Z,19.74
2019-04-10T00:40:01.360Z,19.91
2019-04-10T00:41:01.016Z,19.85
2019-04-10T00:42:00.986Z,19.81
2019-04-10T00:43:00.935Z,19.76
2019-04-10T00:44:01.477Z,19.86
2019-04-10T00:45:02.023Z,19.82
2019-04-10T00:46:01.945Z,19.86
2019-04-10T00:47:00.737Z,19.95
2019-04-10T00:48:01.671Z,20.04
2019-04-10T00:49:00.695Z,20.06
2019-04-10T00:50:00.594Z,19.99
2019-04-10T00:51:01.244Z,20.06
2019-04-10T00:52:00.688Z,19.99
2019-04-10T00:53:00.930Z,19.99
2019-04-10T00:54:01.267Z,20.04
2019-04-10T00:55:01.456Z,20.07
2019-04-10T00:56:00.313Z,20.07
2019-04-10T00:57:01.051Z,19.95
2019-04-10T00:58:00.233Z,19.96
2019-04-10T00:59:00.174Z,20.03
2019-04-10T01:00:00.896Z,20.06
2019-04-10T01:01:00.346Z,20.02
2019-04-10T01:02:00.348Z,19.95
2019-04-10T01:03:00.874Z,19.95
2019-04-10T01:04:00.266Z,19.94
2019-04-10T01:05:00.511Z,19.82
2019-04-10T01:05:59.845Z,19.82
2019-04-10T01:07:00.147Z,19.79
2019-04-10T01:08:00.176Z,19.81
2019-04-10T01:08:59.704Z,19.69
2019-04-10T01:09:59.816Z,19.73
2019-04-10T01:10:59.623Z,19.71
2019-04-10T01:11:59.581Z,19.73
2019-04-10T01:13:00.578Z,19.88
2019-04-10T01:13:59.483Z,19.64
2019-04-10T01:15:00.274Z,19.76
2019-04-10T01:15:59.376Z,19.73
2019-04-10T01:16:59.996Z,19.71
2019-04-10T01:17:59.295Z,19.67
2019-04-10T01:18:59.523Z,19.67
2019-04-10T01:19:59.201Z,19.67
2019-04-10T01:20:59.141Z,19.71
2019-04-10T01:21:59.108Z,19.79
2019-04-10T01:22:59.405Z,19.63
2019-04-10T01:23:59.422Z,19.52
2019-04-10T01:24:59.868Z,19.54
2019-04-10T01:25:58.938Z,19.52
2019-04-10T01:26:59.296Z,19.55
2019-04-10T01:27:58.813Z,19.62
2019-04-10T01:28:58.779Z,19.56
2019-04-10T01:29:58.722Z,19.59
2019-04-10T01:30:59.073Z,19.63
2019-04-10T01:31:59.526Z,19.51
2019-04-10T01:32:58.615Z,19.59
2019-04-10T01:33:58.544Z,19.55
2019-04-10T01:34:58.869Z,19.44
2019-04-10T01:35:58.541Z,19.48
2019-04-10T01:36:58.540Z,19.44
2019-04-10T01:38:01.424Z,19.47
2019-04-10T01:38:58.308Z,19.41
2019-04-10T01:39:59.021Z,19.37
2019-04-10T01:40:58.205Z,19.44
2019-04-10T01:41:58.522Z,19.40
2019-04-10T01:43:04.672Z,19.41
2019-04-10T01:43:58.061Z,19.41
2019-04-10T01:44:58.013Z,19.54
2019-04-10T01:45:57.980Z,19.48
2019-04-10T01:46:59.041Z,19.40
2019-04-10T01:47:57.889Z,19.30
2019-04-10T01:48:57.838Z,19.31
2019-04-10T01:49:57.953Z,19.34
2019-04-10T01:50:57.731Z,19.27
2019-04-10T01:51:57.684Z,19.27
2019-04-10T01:52:57.640Z,19.30
2019-04-10T01:53:58.521Z,19.30
2019-04-10T01:54:57.719Z,19.34
2019-04-10T01:55:57.640Z,19.31
2019-04-10T01:56:57.770Z,19.31
2019-04-10T01:57:57.414Z,19.31
2019-04-10T01:58:57.359Z,19.30
2019-04-10T01:59:58.273Z,19.34
2019-04-10T02:00:57.209Z,19.26
2019-04-10T02:01:57.225Z,19.29
2019-04-10T02:02:57.966Z,19.27
2019-04-10T02:03:57.131Z,19.30
2019-04-10T02:04:57.084Z,19.31
2019-04-10T02:05:57.023Z,19.29
2019-04-10T02:06:57.942Z,19.34
2019-04-10T02:08:03.291Z,19.39
2019-04-10T02:08:56.895Z,19.34
2019-04-10T02:09:56.834Z,19.29
2019-04-10T02:10:56.787Z,19.36
2019-04-10T02:11:56.753Z,19.26
2019-04-10T02:12:56.709Z,19.34
2019-04-10T02:13:56.875Z,19.30
2019-04-10T02:14:56.662Z,19.40
2019-04-10T02:15:56.736Z,19.39
2019-04-10T02:16:57.019Z,19.45
2019-04-10T02:17:57.081Z,19.34
2019-04-10T02:18:57.602Z,19.40
2019-04-10T02:19:56.795Z,19.39
2019-04-10T02:20:56.316Z,19.41
2019-04-10T02:21:56.281Z,19.40
2019-04-10T02:22:56.261Z,19.34
2019-04-10T02:23:56.175Z,19.30
2019-04-10T02:24:56.141Z,19.45
2019-04-10T02:25:56.992Z,19.49
2019-04-10T02:26:56.174Z,19.45
2019-04-10T02:27:56.406Z,19.37
2019-04-10T02:28:55.942Z,19.45
2019-04-10T02:29:55.900Z,19.39
2019-04-10T02:30:56.688Z,19.41
2019-04-10T02:31:57.336Z,19.39
2019-04-10T02:32:55.844Z,19.27
2019-04-10T02:33:57.364Z,19.33
2019-04-10T02:34:57.362Z,19.40
2019-04-10T02:35:57.087Z,19.47
2019-04-10T02:36:55.583Z,19.41
2019-04-10T02:37:57.871Z,19.39
2019-04-10T02:39:08.775Z,19.40
2019-04-10T02:39:59.931Z,19.34
2019-04-10T02:40:55.763Z,19.34
2019-04-10T02:41:56.175Z,19.34
2019-04-10T02:42:56.562Z,19.30
2019-04-10T02:43:55.649Z,19.40
2019-04-10T02:44:55.198Z,19.33
2019-04-10T02:45:55.690Z,19.30
2019-04-10T02:46:57.941Z,19.24
2019-04-10T02:47:55.319Z,19.22
2019-04-10T02:48:56.058Z,19.19
2019-04-10T02:49:56.554Z,19.29
2019-04-10T02:50:55.481Z,19.19
2019-04-10T02:51:55.082Z,19.18
2019-04-10T02:52:55.200Z,19.26
2019-04-10T02:53:56.078Z,19.18
2019-04-10T02:54:54.714Z,19.21
2019-04-10T02:55:55.817Z,19.29
2019-04-10T02:56:54.936Z,19.18
2019-04-10T02:57:56.304Z,19.24
2019-04-10T02:58:54.554Z,19.18
2019-04-10T02:59:55.764Z,19.18
2019-04-10T03:00:56.203Z,19.21
2019-04-10T03:01:55.914Z,19.16
2019-04-10T03:02:55.555Z,19.11
2019-04-10T03:03:55.529Z,19.18
2019-04-10T03:04:55.113Z,19.15
2019-04-10T03:05:54.366Z,19.16
2019-04-10T03:06:55.450Z,19.27
2019-04-10T03:07:55.724Z,19.21
2019-04-10T03:09:07.989Z,19.18
2019-04-10T03:10:07.427Z,19.19
2019-04-10T03:10:59.471Z,19.26
2019-04-10T03:11:55.364Z,19.30
2019-04-10T03:12:54.452Z,19.18
2019-04-10T03:13:55.463Z,19.19
2019-04-10T03:14:54.947Z,19.29
2019-04-10T03:15:53.750Z,19.33
2019-04-10T03:16:53.689Z,19.31
2019-04-10T03:17:54.515Z,19.27
2019-04-10T03:18:53.582Z,19.19
2019-04-10T03:19:53.936Z,19.29
2019-04-10T03:20:54.339Z,19.30
2019-04-10T03:21:53.444Z,19.36
2019-04-10T03:22:53.443Z,19.34
2019-04-10T03:23:53.799Z,19.47
2019-04-10T03:24:53.311Z,19.44
2019-04-10T03:25:53.264Z,19.40
2019-04-10T03:26:54.109Z,19.40
2019-04-10T03:27:53.171Z,19.27
2019-04-10T03:28:53.536Z,19.27
2019-04-10T03:29:53.889Z,19.34
2019-04-10T03:30:53.862Z,19.31
2019-04-10T03:31:54.923Z,19.24
2019-04-10T03:32:58.078Z,19.22
2019-04-10T03:33:55.228Z,19.27
2019-04-10T03:34:53.416Z,19.27
2019-04-10T03:35:52.792Z,19.04
2019-04-10T03:36:53.795Z,19.08
2019-04-10T03:37:52.981Z,19.14
2019-04-10T03:38:58.743Z,19.21
2019-04-10T03:39:53.221Z,19.09
2019-04-10T03:40:53.444Z,19.09
2019-04-10T03:41:52.659Z,19.11
2019-04-10T03:42:53.015Z,19.14
2019-04-10T03:43:52.415Z,19.12
2019-04-10T03:44:52.371Z,19.09
2019-04-10T03:45:52.944Z,19.11
2019-04-10T03:46:53.575Z,18.99
2019-04-10T03:47:52.213Z,18.92
2019-04-10T03:48:52.169Z,19.11
2019-04-10T03:49:52.133Z,19.04
2019-04-10T03:50:52.234Z,19.11
2019-04-10T03:51:52.667Z,19.15
2019-04-10T03:52:51.994Z,19.09
2019-04-10T03:53:51.930Z,19.11
2019-04-10T03:54:52.362Z,19.09
2019-04-10T03:55:52.124Z,19.04
2019-04-10T03:56:52.029Z,19.07
2019-04-10T03:57:51.999Z,19.08
2019-04-10T03:58:51.723Z,19.04
2019-04-10T03:59:51.867Z,19.09
2019-04-10T04:00:52.192Z,19.14
2019-04-10T04:01:51.566Z,19.12
2019-04-10T04:02:51.822Z,19.07
2019-04-10T04:03:51.458Z,19.07
2019-04-10T04:04:51.424Z,19.04
2019-04-10T04:05:51.376Z,19.08
2019-04-10T04:06:52.273Z,19.11
2019-04-10T04:07:51.269Z,19.09
2019-04-10T04:09:01.685Z,19.08
2019-04-10T04:09:51.578Z,18.98
2019-04-10T04:10:51.327Z,18.98
2019-04-10T04:11:51.094Z,19.08
2019-04-10T04:12:51.032Z,19.00
2019-04-10T04:13:52.101Z,18.95
2019-04-10T04:14:50.939Z,18.98
2019-04-10T04:15:50.891Z,18.99
2019-04-10T04:16:51.251Z,18.93
2019-04-10T04:17:50.797Z,18.95
2019-04-10T04:18:51.226Z,18.90
2019-04-10T04:19:50.709Z,19.00
2019-04-10T04:20:51.028Z,18.95
2019-04-10T04:21:50.608Z,18.92
2019-04-10T04:22:50.574Z,18.89
2019-04-10T04:23:51.101Z,18.90
2019-04-10T04:24:50.466Z,18.89
2019-04-10T04:25:50.485Z,18.80
2019-04-10T04:26:50.814Z,18.96
2019-04-10T04:27:50.337Z,18.83
2019-04-10T04:28:51.317Z,18.83
2019-04-10T04:29:50.246Z,18.84
2019-04-10T04:30:52.325Z,18.84
2019-04-10T04:31:50.666Z,18.84
2019-04-10T04:32:50.494Z,18.86
2019-04-10T04:33:50.096Z,18.73
2019-04-10T04:34:50.008Z,18.77
2019-04-10T04:35:51.070Z,18.81
2019-04-10T04:36:49.911Z,18.75
2019-04-10T04:37:50.608Z,18.83
2019-04-10T04:38:49.817Z,18.83
2019-04-10T04:39:49.941Z,18.86
2019-04-10T04:40:51.269Z,18.75
2019-04-10T04:41:50.111Z,18.78
2019-04-10T04:42:49.632Z,18.63
2019-04-10T04:43:50.173Z,18.70
2019-04-10T04:44:49.520Z,18.75
2019-04-10T04:45:49.486Z,18.73
2019-04-10T04:46:50.490Z,18.71
2019-04-10T04:47:50.336Z,18.73
2019-04-10T04:48:50.103Z,18.74
2019-04-10T04:49:50.256Z,18.77
2019-04-10T04:50:50.015Z,18.74
2019-04-10T04:51:49.203Z,18.78
2019-04-10T04:52:49.391Z,18.89
2019-04-10T04:53:49.110Z,18.71
2019-04-10T04:54:49.795Z,18.83
2019-04-10T04:55:49.264Z,18.86
2019-04-10T04:56:48.953Z,18.71
2019-04-10T04:57:49.181Z,18.86
2019-04-10T04:58:49.704Z,18.74
2019-04-10T04:59:48.810Z,18.68
2019-04-10T05:00:48.765Z,18.77
2019-04-10T05:01:48.930Z,18.73
2019-04-10T05:02:48.668Z,18.88
2019-04-10T05:03:48.621Z,18.75
2019-04-10T05:04:49.371Z,18.84
2019-04-10T05:05:48.526Z,18.73
2019-04-10T05:06:48.479Z,18.90
2019-04-10T05:07:57.525Z,18.75
2019-04-10T05:08:48.621Z,18.66
2019-04-10T05:09:48.337Z,18.77
2019-04-10T05:10:48.290Z,18.65
2019-04-10T05:11:48.967Z,18.78
2019-04-10T05:12:49.401Z,18.75
2019-04-10T05:13:48.978Z,18.74
2019-04-10T05:14:48.201Z,18.78
2019-04-10T05:15:49.138Z,18.68
2019-04-10T05:16:48.005Z,18.66
2019-04-10T05:17:47.972Z,18.70
2019-04-10T05:18:47.928Z,18.66
2019-04-10T05:19:47.864Z,18.60
2019-04-10T05:20:50.383Z,18.56
2019-04-10T05:21:47.782Z,18.62
2019-04-10T05:22:47.721Z,18.62
2019-04-10T05:23:47.675Z,18.58
2019-04-10T05:24:48.740Z,18.59
2019-04-10T05:25:47.696Z,18.62
2019-04-10T05:26:47.544Z,18.58
2019-04-10T05:27:47.492Z,18.58
2019-04-10T05:28:47.437Z,18.59
2019-04-10T05:29:47.390Z,18.63
2019-04-10T05:30:47.478Z,18.63
2019-04-10T05:31:47.295Z,18.59
2019-04-10T05:32:47.339Z,18.52
2019-04-10T05:33:47.240Z,18.49
2019-04-10T05:34:47.168Z,18.49
2019-04-10T05:35:47.118Z,18.49
2019-04-10T05:36:47.094Z,18.50
2019-04-10T05:37:47.775Z,18.50
2019-04-10T05:38:48.135Z,18.41
2019-04-10T05:39:50.666Z,18.43
2019-04-10T05:40:46.867Z,18.49
2019-04-10T05:41:47.114Z,18.43
2019-04-10T05:42:47.200Z,18.50
2019-04-10T05:43:46.846Z,18.44
2019-04-10T05:44:47.805Z,18.52
2019-04-10T05:45:46.643Z,18.50
2019-04-10T05:46:47.566Z,18.50
2019-04-10T05:47:46.675Z,18.45
2019-04-10T05:48:46.488Z,18.45
2019-04-10T05:49:47.119Z,18.43
2019-04-10T05:50:53.853Z,18.49
2019-04-10T05:51:46.358Z,18.52
2019-04-10T05:52:47.227Z,18.47
2019-04-10T05:53:47.326Z,18.52
2019-04-10T05:54:47.218Z,18.55
2019-04-10T05:55:47.237Z,18.35
2019-04-10T05:56:46.977Z,18.50
2019-04-10T05:57:46.073Z,18.52
2019-04-10T05:58:46.931Z,18.59
2019-04-10T05:59:46.006Z,18.58
2019-04-10T06:00:47.068Z,18.58
2019-04-10T06:01:45.874Z,18.58
2019-04-10T06:02:46.029Z,18.53
2019-04-10T06:03:46.947Z,18.58
2019-04-10T06:04:45.745Z,18.53
2019-04-10T06:05:46.532Z,18.55
2019-04-10T06:06:46.507Z,18.53
2019-04-10T06:07:45.585Z,18.52
2019-04-10T06:08:45.539Z,18.49
2019-04-10T06:09:53.936Z,18.44
2019-04-10T06:10:45.734Z,18.50
2019-04-10T06:11:45.744Z,18.56
2019-04-10T06:12:45.361Z,18.53
2019-04-10T06:13:45.313Z,18.40
2019-04-10T06:14:46.302Z,18.55
2019-04-10T06:15:45.475Z,18.50
2019-04-10T06:16:45.171Z,18.56
2019-04-10T06:17:45.116Z,18.44
2019-04-10T06:18:45.233Z,18.40
2019-04-10T06:19:45.029Z,18.45
2019-04-10T06:20:45.301Z,18.50
2019-04-10T06:21:45.950Z,18.50
2019-04-10T06:22:45.507Z,18.50
2019-04-10T06:23:44.839Z,18.65
2019-04-10T06:24:44.803Z,18.53
2019-04-10T06:25:45.809Z,18.38
2019-04-10T06:26:45.797Z,18.45
2019-04-10T06:27:45.023Z,18.40
2019-04-10T06:28:44.589Z,18.40
2019-04-10T06:29:45.008Z,18.43
2019-04-10T06:30:44.507Z,18.38
2019-04-10T06:31:45.095Z,18.41
2019-04-10T06:32:45.483Z,18.43
2019-04-10T06:33:44.478Z,18.40
2019-04-10T06:34:44.316Z,18.31
2019-04-10T06:35:44.754Z,18.31
2019-04-10T06:36:44.208Z,18.29
2019-04-10T06:37:44.238Z,18.35
2019-04-10T06:38:45.331Z,18.38
2019-04-10T06:39:44.989Z,18.34
2019-04-10T06:40:44.085Z,18.37
2019-04-10T06:41:43.971Z,18.40
2019-04-10T06:42:49.815Z,18.40
2019-04-10T06:43:43.889Z,18.26
2019-04-10T06:44:44.557Z,18.31
2019-04-10T06:45:44.066Z,18.43
2019-04-10T06:46:44.479Z,18.37
2019-04-10T06:47:44.537Z,18.49
2019-04-10T06:48:44.542Z,18.41
2019-04-10T06:49:43.658Z,18.41
2019-04-10T06:50:44.778Z,18.41
2019-04-10T06:51:43.496Z,18.34
2019-04-10T06:52:43.464Z,18.45
2019-04-10T06:53:43.401Z,18.41
2019-04-10T06:54:43.353Z,18.33
2019-04-10T06:55:43.306Z,18.38
2019-04-10T06:56:43.272Z,18.53
2019-04-10T06:57:49.160Z,18.40
2019-04-10T06:58:44.293Z,18.41
2019-04-10T06:59:43.128Z,18.44
2019-04-10T07:00:45.591Z,18.40
2019-04-10T07:01:48.812Z,18.38
2019-04-10T07:02:44.270Z,18.45
2019-04-10T07:03:52.795Z,18.38
2019-04-10T07:04:50.032Z,18.44
2019-04-10T07:05:56.556Z,18.43
2019-04-10T07:06:52.860Z,18.49
2019-04-10T07:07:51.462Z,18.40
2019-04-10T07:08:46.630Z,18.55
2019-04-10T07:09:42.641Z,18.40
2019-04-10T07:10:52.143Z,18.56
2019-04-10T07:11:42.863Z,18.43
2019-04-10T07:12:43.719Z,18.52
2019-04-10T07:13:42.998Z,18.52
2019-04-10T07:14:47.207Z,18.49
2019-04-10T07:15:44.378Z,18.59
2019-04-10T07:16:42.321Z,18.49
2019-04-10T07:17:43.268Z,18.45
2019-04-10T07:18:45.836Z,18.55
2019-04-10T07:19:43.947Z,18.53
2019-04-10T07:20:42.208Z,18.53
2019-04-10T07:21:42.740Z,18.53
2019-04-10T07:22:46.592Z,18.49
2019-04-10T07:23:42.826Z,18.50
2019-04-10T07:24:42.584Z,18.49
2019-04-10T07:25:44.622Z,18.50
2019-04-10T07:26:44.885Z,18.43
2019-04-10T07:27:41.936Z,18.49
2019-04-10T07:28:44.146Z,18.47
2019-04-10T07:29:42.513Z,18.43
2019-04-10T07:30:41.656Z,18.43
2019-04-10T07:31:42.492Z,18.38
2019-04-10T07:32:45.743Z,18.44
2019-04-10T07:33:42.497Z,18.31
2019-04-10T07:34:42.479Z,18.43
2019-04-10T07:35:42.267Z,18.37
2019-04-10T07:36:43.305Z,18.31
2019-04-10T07:37:42.433Z,18.45
2019-04-10T07:38:41.398Z,18.37
2019-04-10T07:39:41.550Z,18.37
2019-04-10T07:40:41.182Z,18.43
2019-04-10T07:41:41.809Z,18.38
2019-04-10T07:42:42.798Z,18.47
2019-04-10T07:43:41.026Z,18.45
2019-04-10T07:44:40.980Z,18.45
2019-04-10T07:45:40.931Z,18.38
2019-04-10T07:46:40.886Z,18.35
2019-04-10T07:47:41.938Z,18.40
2019-04-10T07:48:41.416Z,18.41
2019-04-10T07:49:41.847Z,18.34
2019-04-10T07:50:42.016Z,18.37
2019-04-10T07:51:40.646Z,18.37
2019-04-10T07:52:41.399Z,18.38
2019-04-10T07:53:41.475Z,18.34
2019-04-10T07:54:43.097Z,18.34
2019-04-10T07:55:40.456Z,18.31
2019-04-10T07:56:40.408Z,18.49
2019-04-10T07:57:40.863Z,18.35
2019-04-10T07:58:40.314Z,18.44
2019-04-10T07:59:41.112Z,18.40
2019-04-10T08:00:40.748Z,18.41
2019-04-10T08:01:40.616Z,18.41
2019-04-10T08:02:40.571Z,18.44
2019-04-10T08:03:40.078Z,18.38
2019-04-10T08:04:40.042Z,18.34
2019-04-10T08:05:39.981Z,18.31
2019-04-10T08:06:39.946Z,18.10
2019-04-10T08:07:40.565Z,18.05
2019-04-10T08:08:39.851Z,18.07
2019-04-10T08:09:39.997Z,17.95
2019-04-10T08:10:42.299Z,17.92
2019-04-10T08:11:40.212Z,17.94
2019-04-10T08:12:48.591Z,18.00
2019-04-10T08:13:40.626Z,17.92
2019-04-10T08:14:39.923Z,17.97
2019-04-10T08:15:39.508Z,17.94
2019-04-10T08:16:39.501Z,17.92
2019-04-10T08:17:39.423Z,17.80
2019-04-10T08:18:39.517Z,17.94
2019-04-10T08:19:39.314Z,17.89
2019-04-10T08:20:40.244Z,17.87
2019-04-10T08:21:40.252Z,17.85
2019-04-10T08:22:39.431Z,17.86
2019-04-10T08:23:39.123Z,17.79
2019-04-10T08:24:39.076Z,17.76
2019-04-10T08:25:39.028Z,17.70
2019-04-10T08:26:38.993Z,17.72
2019-04-10T08:27:38.933Z,17.86
2019-04-10T08:28:38.886Z,17.89
2019-04-10T08:29:39.460Z,17.85
2019-04-10T08:30:39.805Z,17.72
2019-04-10T08:31:39.643Z,17.64
2019-04-10T08:32:51.025Z,17.44
2019-04-10T08:33:38.763Z,17.46
2019-04-10T08:34:38.613Z,17.49
2019-04-10T08:35:39.550Z,17.56
2019-04-10T08:36:39.504Z,17.52
2019-04-10T08:37:39.084Z,17.51
2019-04-10T08:38:38.407Z,17.46
2019-04-10T08:39:42.963Z,17.59
2019-04-10T08:40:38.423Z,17.67
2019-04-10T08:41:38.372Z,17.52
2019-04-10T08:42:40.235Z,17.48
2019-04-10T08:43:38.170Z,17.49
2019-04-10T08:44:38.354Z,17.48
2019-04-10T08:45:46.680Z,17.38
2019-04-10T08:46:38.040Z,17.34
2019-04-10T08:47:37.989Z,17.36
2019-04-10T08:48:39.077Z,17.29
2019-04-10T08:49:38.913Z,17.34
2019-04-10T08:50:38.536Z,17.42
2019-04-10T08:51:37.807Z,17.34
2019-04-10T08:52:38.956Z,17.39
2019-04-10T08:53:38.282Z,17.34
2019-04-10T08:54:38.402Z,17.39
2019-04-10T08:55:37.870Z,17.38
2019-04-10T08:56:38.616Z,17.42
2019-04-10T08:57:38.258Z,17.38
2019-04-10T08:58:37.450Z,17.42
2019-04-10T08:59:38.238Z,17.36
2019-04-10T09:00:37.572Z,17.36
2019-04-10T09:01:37.636Z,17.38
2019-04-10T09:02:38.116Z,17.41
2019-04-10T09:03:37.224Z,17.41
2019-04-10T09:04:37.162Z,17.41
2019-04-10T09:05:37.522Z,17.49
2019-04-10T09:06:37.786Z,17.45
2019-04-10T09:07:38.078Z,17.46
2019-04-10T09:08:37.217Z,17.49
2019-04-10T09:09:37.388Z,17.46
2019-04-10T09:10:36.874Z,17.60
2019-04-10T09:11:37.596Z,17.44
2019-04-10T09:12:36.900Z,17.44
2019-04-10T09:13:36.887Z,17.41
2019-04-10T09:14:37.129Z,17.60
2019-04-10T09:15:36.648Z,17.60
2019-04-10T09:16:36.586Z,17.64
2019-04-10T09:17:37.606Z,17.54
2019-04-10T09:18:37.182Z,17.72
2019-04-10T09:19:36.443Z,17.76
2019-04-10T09:20:36.408Z,17.76
2019-04-10T09:21:36.362Z,17.71
2019-04-10T09:22:57.202Z,17.67
2019-04-10T09:23:45.385Z,17.67
2019-04-10T09:24:36.268Z,17.59
2019-04-10T09:25:37.259Z,17.70
2019-04-10T09:26:36.211Z,17.74
2019-04-10T09:27:36.059Z,17.71
2019-04-10T09:28:36.011Z,17.71
2019-04-10T09:29:36.252Z,17.78
2019-04-10T09:30:35.915Z,17.74
2019-04-10T09:31:35.882Z,17.72
2019-04-10T09:32:36.827Z,17.80
2019-04-10T09:33:36.886Z,17.85
2019-04-10T09:34:36.025Z,17.86
2019-04-10T09:35:36.342Z,17.80
2019-04-10T09:36:35.642Z,17.94
2019-04-10T09:37:35.594Z,17.90
2019-04-10T09:38:35.538Z,17.90
2019-04-10T09:39:35.902Z,17.82
2019-04-10T09:40:36.303Z,17.90
2019-04-10T09:41:36.232Z,17.89
2019-04-10T09:42:35.456Z,18.00
2019-04-10T09:43:35.976Z,17.98
2019-04-10T09:44:35.930Z,18.01
2019-04-10T09:45:35.212Z,18.00
2019-04-10T09:46:35.348Z,18.00
2019-04-10T09:47:35.105Z,17.98
2019-04-10T09:48:35.864Z,18.00
2019-04-10T09:49:40.313Z,18.07
2019-04-10T09:50:35.399Z,18.10
2019-04-10T09:51:35.951Z,17.97
2019-04-10T09:52:35.630Z,18.03
2019-04-10T09:53:35.191Z,18.08
2019-04-10T09:54:34.944Z,18.15
2019-04-10T09:55:34.727Z,18.03
2019-04-10T09:56:34.699Z,18.04
2019-04-10T09:57:34.711Z,18.05
2019-04-10T09:58:34.661Z,18.08
2019-04-10T09:59:36.991Z,18.00
2019-04-10T10:00:34.488Z,18.00
2019-04-10T10:01:34.449Z,17.92
2019-04-10T10:02:34.405Z,18.05
2019-04-10T10:03:34.607Z,17.98
2019-04-10T10:04:34.380Z,18.04
2019-04-10T10:05:34.855Z,18.10
2019-04-10T10:06:36.354Z,18.22
2019-04-10T10:07:34.808Z,18.13
2019-04-10T10:08:34.104Z,18.10
2019-04-10T10:09:34.665Z,18.11
2019-04-10T10:10:35.776Z,18.26
2019-04-10T10:11:34.148Z,18.16
2019-04-10T10:12:34.371Z,18.18
2019-04-10T10:13:34.021Z,18.13
2019-04-10T10:14:33.834Z,18.25
2019-04-10T10:15:33.786Z,18.29
2019-04-10T10:16:33.872Z,18.40
2019-04-10T10:17:34.829Z,18.40
2019-04-10T10:18:33.627Z,18.37
2019-04-10T10:19:34.228Z,18.44
2019-04-10T10:20:33.548Z,18.38
2019-04-10T10:21:34.584Z,18.45
2019-04-10T10:22:33.575Z,18.49
2019-04-10T10:23:33.915Z,18.49
2019-04-10T10:24:33.349Z,18.50
2019-04-10T10:25:33.307Z,18.56
2019-04-10T10:26:34.321Z,18.60
2019-04-10T10:27:33.991Z,18.53
2019-04-10T10:28:33.270Z,18.53
2019-04-10T10:29:33.562Z,18.56
2019-04-10T10:30:33.706Z,18.55
2019-04-10T10:31:33.009Z,18.56
2019-04-10T10:32:33.122Z,18.60
2019-04-10T10:33:34.015Z,18.65
2019-04-10T10:34:32.880Z,18.63
2019-04-10T10:35:33.503Z,18.63
2019-04-10T10:36:39.341Z,18.70
2019-04-10T10:37:32.740Z,18.70
2019-04-10T10:38:32.691Z,18.74
2019-04-10T10:39:32.766Z,18.73
2019-04-10T10:40:32.584Z,18.66
2019-04-10T10:41:32.537Z,18.62
2019-04-10T10:42:32.507Z,18.59
2019-04-10T10:43:32.483Z,18.59
2019-04-10T10:44:32.413Z,18.55
2019-04-10T10:45:32.361Z,18.60
2019-04-10T10:46:33.479Z,18.66
2019-04-10T10:47:32.563Z,18.71
2019-04-10T10:48:32.221Z,18.63
2019-04-10T10:49:32.703Z,18.80
2019-04-10T10:50:33.095Z,18.73
2019-04-10T10:51:32.962Z,18.73
2019-04-10T10:52:32.030Z,18.75
2019-04-10T10:53:32.391Z,18.70
2019-04-10T10:54:32.692Z,18.73
2019-04-10T10:55:31.873Z,18.70
2019-04-10T10:56:31.839Z,18.81
2019-04-10T10:57:31.779Z,18.77
2019-04-10T10:58:32.159Z,18.89
2019-04-10T10:59:31.685Z,18.93
2019-04-10T11:00:31.637Z,18.95
2019-04-10T11:01:31.702Z,19.00
2019-04-10T11:02:31.675Z,18.99
2019-04-10T11:03:32.060Z,18.96
2019-04-10T11:04:31.598Z,18.96
2019-04-10T11:05:31.938Z,18.93
2019-04-10T11:06:31.354Z,18.86
2019-04-10T11:07:31.367Z,18.81
2019-04-10T11:08:31.259Z,18.93
2019-04-10T11:09:32.582Z,18.89
2019-04-10T11:10:31.443Z,18.90
2019-04-10T11:11:31.130Z,18.93
2019-04-10T11:12:31.099Z,18.95
2019-04-10T11:13:31.042Z,19.04
2019-04-10T11:14:31.563Z,19.18
2019-04-10T11:15:31.791Z,19.22
2019-04-10T11:16:31.323Z,19.19
2019-04-10T11:17:30.849Z,19.27
2019-04-10T11:18:30.885Z,19.40
2019-04-10T11:19:31.206Z,19.56
2019-04-10T11:20:32.075Z,19.59
2019-04-10T11:21:30.648Z,19.84
2019-04-10T11:22:31.529Z,19.91
2019-04-10T11:23:30.638Z,20.16
2019-04-10T11:24:31.570Z,20.13
2019-04-10T11:25:30.476Z,20.21
2019-04-10T11:26:30.593Z,20.26
2019-04-10T11:27:31.666Z,20.31
2019-04-10T11:28:32.282Z,20.41
2019-04-10T11:29:31.469Z,20.48
2019-04-10T11:30:30.252Z,20.62
2019-04-10T11:31:31.376Z,20.70
2019-04-10T11:32:30.457Z,20.74
2019-04-10T11:33:30.759Z,20.74
2019-04-10T11:34:31.611Z,20.66
2019-04-10T11:35:31.671Z,20.70
2019-04-10T11:36:30.117Z,20.72
2019-04-10T11:38:29.908Z,20.84
2019-04-10T11:39:33.071Z,20.85
2019-04-10T11:40:31.357Z,20.93
2019-04-10T11:41:31.167Z,20.96
2019-04-10T11:42:32.215Z,21.03
2019-04-10T11:43:30.196Z,21.25
2019-04-10T11:44:29.794Z,21.32
2019-04-10T11:45:37.949Z,21.54
2019-04-10T11:46:32.013Z,21.61
2019-04-10T11:47:31.728Z,21.82
2019-04-10T11:48:30.132Z,21.77
2019-04-10T11:49:31.049Z,21.77
2019-04-10T11:50:30.008Z,21.80
2019-04-10T11:51:30.630Z,21.75
2019-04-10T11:53:31.765Z,21.88
2019-04-10T11:54:31.683Z,21.88
2019-04-10T11:55:29.761Z,21.88
2019-04-10T11:56:30.186Z,22.04
2019-04-10T11:57:30.828Z,22.20
2019-04-10T11:58:29.120Z,22.28
2019-04-10T11:59:31.561Z,22.39
2019-04-10T12:00:30.798Z,22.32
2019-04-10T12:01:30.946Z,22.45
2019-04-10T12:02:32.301Z,22.48
2019-04-10T12:03:28.736Z,22.36
2019-04-10T12:04:30.763Z,22.43
2019-04-10T12:05:29.713Z,22.41
2019-04-10T12:06:29.767Z,22.43
2019-04-10T12:07:54.784Z,22.28
2019-04-10T12:11:28.850Z,22.06
2019-04-10T12:12:28.310Z,22.06
2019-04-10T12:13:28.323Z,21.98
2019-04-10T12:14:28.250Z,21.99
2019-04-10T12:15:28.237Z,21.92
2019-04-10T12:16:29.345Z,21.89
2019-04-10T12:17:28.082Z,21.88
2019-04-10T12:18:28.669Z,21.88
2019-04-10T12:19:29.016Z,21.92
2019-04-10T12:20:28.945Z,21.91
2019-04-10T12:21:27.915Z,21.88
2019-04-10T12:22:27.870Z,21.95
2019-04-10T12:23:27.813Z,21.89
2019-04-10T12:24:27.780Z,21.79
2019-04-10T12:25:27.723Z,21.79
2019-04-10T12:26:27.689Z,21.79
2019-04-10T12:27:27.625Z,21.80
2019-04-10T12:28:27.749Z,21.89
2019-04-10T12:29:28.837Z,21.89
2019-04-10T12:30:27.492Z,21.92
2019-04-10T12:31:28.124Z,21.98
2019-04-10T12:32:28.343Z,21.99
2019-04-10T12:33:27.661Z,22.10
2019-04-10T12:34:28.454Z,21.99
2019-04-10T12:35:27.276Z,21.93
2019-04-10T12:36:27.220Z,21.85
2019-04-10T12:37:27.746Z,21.89
2019-04-10T12:38:27.710Z,21.91
2019-04-10T12:39:27.989Z,21.93
2019-04-10T12:40:27.053Z,21.91
2019-04-10T12:41:27.714Z,21.88
2019-04-10T12:42:27.935Z,21.82
2019-04-10T12:43:27.300Z,21.91
2019-04-10T12:44:26.854Z,21.89
2019-04-10T12:45:26.820Z,21.89
2019-04-10T12:46:26.860Z,21.91
2019-04-10T12:47:26.728Z,21.83
2019-04-10T12:48:26.675Z,21.88
2019-04-10T12:49:27.660Z,21.89
2019-04-10T12:50:26.596Z,21.88
2019-04-10T12:51:27.701Z,21.79
2019-04-10T12:52:26.881Z,21.75
2019-04-10T12:53:27.490Z,21.66
2019-04-10T12:54:26.424Z,21.58
2019-04-10T12:55:26.368Z,21.60
2019-04-10T12:56:26.308Z,21.55